Hsc Superjet — IINO — position and weather

sailwx.info

Track history (hours):
 
Tides and Currents Weather Stations Pressure Air Temp Water Temp Dewpoint Dewpoint Depression Visibility Wind Speed Wind Dir Waves Ship Positions

Hsc Superjet

Last reported at 2014-Jul-22 15:25 UTC. Time now 2014-Jul-24 13:08 UTC.
Position N 40°49' E 014°17'.

Length 44 m; draft 1.4 m.

Type: High speed craft. MMSI: 247540000.

Date/timePositionNaut miles runAvg speedWind from/ knotsBaromVisibWave heightAir tempDewpointWater temp
2014-Jul-22 15:25N 40°49' E 014°17'1614.6
2014-Jul-22 14:19N 40°33' E 014°14'0 0.0
2014-Jul-22 13:26N 40°33' E 014°14'4 1.3
2014-Jul-22 10:26N 40°37' E 014°16'9 0.5
2014-Jul-21 15:09N 40°46' E 014°17'1321.6
2014-Jul-21 14:34N 40°33' E 014°15'0 0.0
2014-Jul-21 13:33N 40°33' E 014°15'14 6.1
2014-Jul-21 11:20N 40°47' E 014°17'1414.1
2014-Jul-21 10:23N 40°33' E 014°14'1 1.0
2014-Jul-21 09:30N 40°34' E 014°14'4 4.5
2014-Jul-21 08:33N 40°38' E 014°15'12 2.6
2014-Jul-21 04:05N 40°50' E 014°16'0 0.0
2014-Jul-21 03:33N 40°50' E 014°16'0 0.0
2014-Jul-21 02:33N 40°50' E 014°16'0 0.0
2014-Jul-21 01:08N 40°50' E 014°16'0 0.0
2014-Jul-20 19:14N 40°50' E 014°16'0 0.0
2014-Jul-20 18:33N 40°50' E 014°16'0 0.0
2014-Jul-20 17:33N 40°50' E 014°16'0 0.0
2014-Jul-20 16:33N 40°50' E 014°16'8 7.6
2014-Jul-20 15:31N 40°42' E 014°16'6 5.8
2014-Jul-20 14:34N 40°37' E 014°19'5 5.0
2014-Jul-20 13:31N 40°33' E 014°14'0 0.0
2014-Jul-20 12:33N 40°33' E 014°14'0 0.0
2014-Jul-20 11:33N 40°33' E 014°14'1 1.5
2014-Jul-20 10:33N 40°35' E 014°15'1513.8
2014-Jul-20 09:26N 40°50' E 014°15'0 0.1
2014-Jul-20 07:09N 40°50' E 014°16'0 0.0
2014-Jul-20 06:33N 40°50' E 014°16'4 0.3
2014-Jul-19 15:09N 40°46' E 014°17'1321.0
2014-Jul-19 14:33N 40°33' E 014°14'1 1.5
2014-Jul-19 13:33N 40°35' E 014°15'1 1.1
2014-Jul-19 12:31N 40°35' E 014°14'1 1.0
2014-Jul-19 11:33N 40°35' E 014°13'11 7.6
2014-Jul-19 10:11N 40°45' E 014°17'5 7.0
2014-Jul-19 09:28N 40°50' E 014°16'1718.3
2014-Jul-19 08:33N 40°33' E 014°14'14 1.0
2014-Jul-18 18:32N 40°47' E 014°17'9 8.7
2014-Jul-18 17:33N 40°39' E 014°16'2 1.2
2014-Jul-18 15:31N 40°41' E 014°17'8 7.8
2014-Jul-18 14:33N 40°34' E 014°15'0 0.3
2014-Jul-18 13:31N 40°33' E 014°14'1 1.0
2014-Jul-18 12:11N 40°35' E 014°14'1 0.8
2014-Jul-18 11:27N 40°35' E 014°13'2 1.7
2014-Jul-18 10:33N 40°34' E 014°15'15 7.1
2014-Jul-18 08:24N 40°49' E 014°17'1518.2
2014-Jul-18 07:33N 40°33' E 014°15'17 1.5
2014-Jul-17 20:17N 40°50' E 014°16'0 0.0
2014-Jul-17 19:33N 40°50' E 014°16'0 0.0
2014-Jul-17 18:15N 40°50' E 014°16'0 0.0
2014-Jul-17 17:33N 40°50' E 014°16'1 0.4
2014-Jul-17 15:20N 40°50' E 014°17'1620.5
2014-Jul-17 14:32N 40°33' E 014°14'1 0.8
2014-Jul-17 13:31N 40°34' E 014°15'1 1.1
2014-Jul-17 12:33N 40°35' E 014°16'1 0.4
2014-Jul-17 10:33N 40°34' E 014°15'16 7.7
2014-Jul-17 08:30N 40°50' E 014°17'1717.6
2014-Jul-17 07:33N 40°33' E 014°15'16 1.0
2014-Jul-16 15:22N 40°49' E 014°17'1619.2
2014-Jul-16 14:31N 40°33' E 014°14'2 2.2
2014-Jul-16 13:31N 40°35' E 014°16'1312.2
2014-Jul-16 12:26N 40°49' E 014°17'1514.1
2014-Jul-16 11:20N 40°33' E 014°14'0 0.5
2014-Jul-16 10:30N 40°34' E 014°15'9 0.5
2014-Jul-15 15:33N 40°42' E 014°17'9 8.7
2014-Jul-15 14:33N 40°33' E 014°14'13 5.9
2014-Jul-15 12:21N 40°46' E 014°18'1314.2
2014-Jul-15 11:26N 40°33' E 014°14'1 0.7
2014-Jul-15 10:32N 40°34' E 014°15'9 0.5
2014-Jul-14 15:33N 40°42' E 014°17'3 3.2
2014-Jul-14 14:29N 40°39' E 014°19'7 6.7
2014-Jul-14 13:30N 40°33' E 014°14'0 0.0
2014-Jul-14 12:05N 40°33' E 014°14'0 0.0
2014-Jul-14 11:23N 40°33' E 014°14'0 0.6
2014-Jul-14 10:31N 40°34' E 014°15'7 0.4
2014-Jul-13 15:30N 40°40' E 014°17'4 4.6
2014-Jul-13 14:31N 40°36' E 014°18'4 3.5
2014-Jul-13 13:30N 40°33' E 014°14'0 0.0
2014-Jul-13 12:07N 40°33' E 014°14'0 0.0
2014-Jul-13 11:33N 40°33' E 014°14'0 0.1
2014-Jul-13 10:33N 40°33' E 014°14'  
Track history (hours):
 
Tides and Currents Weather Stations Pressure Air Temp Water Temp Dewpoint Dewpoint Depression Visibility Wind Speed Wind Dir Waves Ship Positions

Hsc Superjet

Last reported at 2014-Jul-22 15:25 UTC. Time now 2014-Jul-24 13:08 UTC.
Position N 40°49' E 014°17'.

Length 44 m; draft 1.4 m.

Type: High speed craft. MMSI: 247540000.

Date/timePositionNaut miles runAvg speedWind from/ knotsBaromVisibWave heightAir tempDewpointWater temp
2014-Jul-22 15:25N 40°49' E 014°17'1614.6
2014-Jul-22 14:19N 40°33' E 014°14'0 0.0
2014-Jul-22 13:26N 40°33' E 014°14'4 1.3
2014-Jul-22 10:26N 40°37' E 014°16'9 0.5
2014-Jul-21 15:09N 40°46' E 014°17'1321.6
2014-Jul-21 14:34N 40°33' E 014°15'0 0.0
2014-Jul-21 13:33N 40°33' E 014°15'14 6.1
2014-Jul-21 11:20N 40°47' E 014°17'1414.1
2014-Jul-21 10:23N 40°33' E 014°14'1 1.0
2014-Jul-21 09:30N 40°34' E 014°14'4 4.5
2014-Jul-21 08:33N 40°38' E 014°15'12 2.6
2014-Jul-21 04:05N 40°50' E 014°16'0 0.0
2014-Jul-21 03:33N 40°50' E 014°16'0 0.0
2014-Jul-21 02:33N 40°50' E 014°16'0 0.0
2014-Jul-21 01:08N 40°50' E 014°16'0 0.0
2014-Jul-20 19:14N 40°50' E 014°16'0 0.0
2014-Jul-20 18:33N 40°50' E 014°16'0 0.0
2014-Jul-20 17:33N 40°50' E 014°16'0 0.0
2014-Jul-20 16:33N 40°50' E 014°16'8 7.6
2014-Jul-20 15:31N 40°42' E 014°16'6 5.8
2014-Jul-20 14:34N 40°37' E 014°19'5 5.0
2014-Jul-20 13:31N 40°33' E 014°14'0 0.0
2014-Jul-20 12:33N 40°33' E 014°14'0 0.0
2014-Jul-20 11:33N 40°33' E 014°14'1 1.5
2014-Jul-20 10:33N 40°35' E 014°15'1513.8
2014-Jul-20 09:26N 40°50' E 014°15'0 0.1
2014-Jul-20 07:09N 40°50' E 014°16'0 0.0
2014-Jul-20 06:33N 40°50' E 014°16'4 0.3
2014-Jul-19 15:09N 40°46' E 014°17'1321.0
2014-Jul-19 14:33N 40°33' E 014°14'1 1.5
2014-Jul-19 13:33N 40°35' E 014°15'1 1.1
2014-Jul-19 12:31N 40°35' E 014°14'1 1.0
2014-Jul-19 11:33N 40°35' E 014°13'11 7.6
2014-Jul-19 10:11N 40°45' E 014°17'5 7.0
2014-Jul-19 09:28N 40°50' E 014°16'1718.3
2014-Jul-19 08:33N 40°33' E 014°14'14 1.0
2014-Jul-18 18:32N 40°47' E 014°17'9 8.7
2014-Jul-18 17:33N 40°39' E 014°16'2 1.2
2014-Jul-18 15:31N 40°41' E 014°17'8 7.8
2014-Jul-18 14:33N 40°34' E 014°15'0 0.3
2014-Jul-18 13:31N 40°33' E 014°14'1 1.0
2014-Jul-18 12:11N 40°35' E 014°14'1 0.8
2014-Jul-18 11:27N 40°35' E 014°13'2 1.7
2014-Jul-18 10:33N 40°34' E 014°15'15 7.1
2014-Jul-18 08:24N 40°49' E 014°17'1518.2
2014-Jul-18 07:33N 40°33' E 014°15'17 1.5
2014-Jul-17 20:17N 40°50' E 014°16'0 0.0
2014-Jul-17 19:33N 40°50' E 014°16'0 0.0
2014-Jul-17 18:15N 40°50' E 014°16'0 0.0
2014-Jul-17 17:33N 40°50' E 014°16'1 0.4
2014-Jul-17 15:20N 40°50' E 014°17'1620.5
2014-Jul-17 14:32N 40°33' E 014°14'1 0.8
2014-Jul-17 13:31N 40°34' E 014°15'1 1.1
2014-Jul-17 12:33N 40°35' E 014°16'1 0.4
2014-Jul-17 10:33N 40°34' E 014°15'16 7.7
2014-Jul-17 08:30N 40°50' E 014°17'1717.6
2014-Jul-17 07:33N 40°33' E 014°15'16 1.0
2014-Jul-16 15:22N 40°49' E 014°17'1619.2
2014-Jul-16 14:31N 40°33' E 014°14'2 2.2
2014-Jul-16 13:31N 40°35' E 014°16'1312.2
2014-Jul-16 12:26N 40°49' E 014°17'1514.1
2014-Jul-16 11:20N 40°33' E 014°14'0 0.5
2014-Jul-16 10:30N 40°34' E 014°15'9 0.5
2014-Jul-15 15:33N 40°42' E 014°17'9 8.7
2014-Jul-15 14:33N 40°33' E 014°14'13 5.9
2014-Jul-15 12:21N 40°46' E 014°18'1314.2
2014-Jul-15 11:26N 40°33' E 014°14'1 0.7
2014-Jul-15 10:32N 40°34' E 014°15'9 0.5
2014-Jul-14 15:33N 40°42' E 014°17'3 3.2
2014-Jul-14 14:29N 40°39' E 014°19'7 6.7
2014-Jul-14 13:30N 40°33' E 014°14'0 0.0
2014-Jul-14 12:05N 40°33' E 014°14'0 0.0
2014-Jul-14 11:23N 40°33' E 014°14'0 0.6
2014-Jul-14 10:31N 40°34' E 014°15'7 0.4
2014-Jul-13 15:30N 40°40' E 014°17'4 4.6
2014-Jul-13 14:31N 40°36' E 014°18'4 3.5
2014-Jul-13 13:30N 40°33' E 014°14'0 0.0
2014-Jul-13 12:07N 40°33' E 014°14'0 0.0
2014-Jul-13 11:33N 40°33' E 014°14'0 0.1
2014-Jul-13 10:33N 40°33' E 014°14'  

Dump ship's entire track history